createdAt,value
2016-09-11T00:00:58.252Z,23.9
2016-09-11T00:01:57.876Z,23.89
2016-09-11T00:02:57.846Z,23.87
2016-09-11T00:03:58.196Z,23.9
2016-09-11T00:04:57.819Z,23.93
2016-09-11T00:05:57.820Z,23.9
2016-09-11T00:06:57.772Z,23.87
2016-09-11T00:07:57.763Z,23.89
2016-09-11T00:08:57.757Z,23.93
2016-09-11T00:09:58.038Z,23.89
2016-09-11T00:10:57.814Z,23.9
2016-09-11T00:11:57.708Z,23.94
2016-09-11T00:12:57.815Z,23.92
2016-09-11T00:13:57.662Z,23.9
2016-09-11T00:14:57.633Z,23.87
2016-09-11T00:15:57.673Z,23.9
2016-09-11T00:16:57.668Z,23.94
2016-09-11T00:17:57.579Z,23.94
2016-09-11T00:18:57.891Z,23.86
2016-09-11T00:19:57.609Z,23.86
2016-09-11T00:20:57.841Z,23.9
2016-09-11T00:21:57.864Z,23.84
2016-09-11T00:22:58.152Z,23.93
2016-09-11T00:23:57.822Z,23.93
2016-09-11T00:24:57.789Z,23.77
2016-09-11T00:25:57.758Z,23.82
2016-09-11T00:26:57.964Z,23.9
2016-09-11T00:27:57.747Z,23.87
2016-09-11T00:28:57.712Z,23.93
2016-09-11T00:29:57.704Z,23.92
2016-09-11T00:30:57.357Z,23.93
2016-09-11T00:31:57.354Z,23.87
2016-09-11T00:32:57.823Z,23.93
2016-09-11T00:33:57.351Z,23.81
2016-09-11T00:34:57.298Z,23.82
2016-09-11T00:35:57.291Z,23.84
2016-09-11T00:36:57.257Z,23.92
2016-09-11T00:37:57.290Z,23.84
2016-09-11T00:38:57.219Z,23.79
2016-09-11T00:39:57.236Z,23.84
2016-09-11T00:40:57.616Z,23.84
2016-09-11T00:41:57.192Z,23.84
2016-09-11T00:42:57.478Z,23.86
2016-09-11T00:43:57.124Z,23.93
2016-09-11T00:44:57.114Z,23.9
2016-09-11T00:45:57.121Z,23.81
2016-09-11T00:46:57.080Z,23.89
2016-09-11T00:47:57.072Z,23.86
2016-09-11T00:48:57.123Z,23.86
2016-09-11T00:49:57.039Z,23.82
2016-09-11T00:50:57.012Z,23.89
2016-09-11T00:51:57.309Z,23.86
2016-09-11T00:52:56.971Z,23.9
2016-09-11T00:53:57.320Z,23.9
2016-09-11T00:54:57.249Z,23.78
2016-09-11T00:55:57.231Z,23.87
2016-09-11T00:56:56.936Z,23.74
2016-09-11T00:57:57.211Z,23.78
2016-09-11T00:58:57.242Z,23.87
2016-09-11T00:59:56.853Z,23.79
2016-09-11T01:00:57.472Z,23.84
2016-09-11T01:01:56.830Z,23.92
2016-09-11T01:02:56.858Z,23.81
2016-09-11T01:03:57.177Z,23.86
2016-09-11T01:04:56.774Z,23.82
2016-09-11T01:05:57.103Z,23.79
2016-09-11T01:06:56.732Z,23.86
2016-09-11T01:07:57.363Z,23.79
2016-09-11T01:08:57.037Z,23.77
2016-09-11T01:09:56.717Z,23.87
2016-09-11T01:10:56.991Z,23.81
2016-09-11T01:11:56.652Z,23.87
2016-09-11T01:12:56.624Z,23.84
2016-09-11T01:13:57.259Z,23.86
2016-09-11T01:14:56.624Z,23.86
2016-09-11T01:15:56.896Z,23.89
2016-09-11T01:16:56.566Z,23.86
2016-09-11T01:17:57.189Z,23.78
2016-09-11T01:18:56.854Z,23.89
2016-09-11T01:19:56.522Z,23.87
2016-09-11T01:20:56.806Z,23.84
2016-09-11T01:21:56.510Z,23.82
2016-09-11T01:22:56.770Z,23.78
2016-09-11T01:23:56.749Z,23.89
2016-09-11T01:24:56.424Z,23.84
2016-09-11T01:25:56.719Z,23.81
2016-09-11T01:26:56.386Z,23.87
2016-09-11T01:27:57.003Z,23.86
2016-09-11T01:28:56.668Z,23.79
2016-09-11T01:29:56.343Z,23.82
2016-09-11T01:30:56.368Z,23.82
2016-09-11T01:31:56.322Z,23.77
2016-09-11T01:32:56.298Z,23.87
2016-09-11T01:33:56.256Z,23.84
2016-09-11T01:34:56.246Z,23.84
2016-09-11T01:35:56.216Z,23.81
2016-09-11T01:36:56.529Z,23.75
2016-09-11T01:37:56.193Z,23.79
2016-09-11T01:38:56.531Z,23.87
2016-09-11T01:39:56.156Z,23.81
2016-09-11T01:40:56.455Z,23.82
2016-09-11T01:41:56.452Z,23.81
2016-09-11T01:42:56.439Z,23.77
2016-09-11T01:43:56.093Z,23.77
2016-09-11T01:44:56.066Z,23.79
2016-09-11T01:45:56.362Z,23.79
2016-09-11T01:46:56.039Z,23.79
2016-09-11T01:47:56.139Z,23.74
2016-09-11T01:48:56.009Z,23.67
2016-09-11T01:49:56.006Z,23.67
2016-09-11T01:50:56.300Z,23.71
2016-09-11T01:51:55.959Z,23.75
2016-09-11T01:52:55.936Z,23.68
2016-09-11T01:53:56.600Z,23.82
2016-09-11T01:54:56.210Z,23.78
2016-09-11T01:55:55.872Z,23.75
2016-09-11T01:56:55.872Z,23.79
2016-09-11T01:57:56.157Z,23.69
2016-09-11T01:58:56.303Z,23.69
2016-09-11T01:59:56.433Z,23.75
2016-09-11T02:00:55.783Z,23.71
2016-09-11T02:01:55.773Z,23.67
2016-09-11T02:02:56.077Z,23.68
2016-09-11T02:03:56.415Z,23.78
2016-09-11T02:04:55.719Z,23.78
2016-09-11T02:05:55.696Z,23.81
2016-09-11T02:06:55.993Z,23.79
2016-09-11T02:07:55.669Z,23.82
2016-09-11T02:08:55.655Z,23.78
2016-09-11T02:09:55.646Z,23.79
2016-09-11T02:10:55.931Z,23.79
2016-09-11T02:11:55.918Z,23.75
2016-09-11T02:12:55.592Z,23.75
2016-09-11T02:13:55.562Z,23.68
2016-09-11T02:14:56.261Z,23.75
2016-09-11T02:15:55.877Z,23.79
2016-09-11T02:16:55.833Z,23.77
2016-09-11T02:17:55.518Z,23.74
2016-09-11T02:18:55.488Z,23.77
2016-09-11T02:19:55.785Z,23.77
2016-09-11T02:20:55.438Z,23.78
2016-09-11T02:21:55.423Z,23.75
2016-09-11T02:22:55.721Z,23.78
2016-09-11T02:23:55.712Z,23.75
2016-09-11T02:24:55.493Z,23.78
2016-09-11T02:25:55.669Z,23.78
2016-09-11T02:26:55.333Z,23.72
2016-09-11T02:27:55.333Z,23.74
2016-09-11T02:28:55.360Z,23.79
2016-09-11T02:29:55.603Z,23.78
2016-09-11T02:30:55.275Z,23.79
2016-09-11T02:31:55.345Z,23.78
2016-09-11T02:32:55.868Z,23.78
2016-09-11T02:33:55.228Z,23.78
2016-09-11T02:34:55.541Z,23.77
2016-09-11T02:35:55.547Z,23.75
2016-09-11T02:36:55.196Z,23.86
2016-09-11T02:37:55.457Z,23.79
2016-09-11T02:38:55.452Z,23.79
2016-09-11T02:39:55.420Z,23.79
2016-09-11T02:40:55.459Z,23.81
2016-09-11T02:41:55.086Z,23.75
2016-09-11T02:42:55.406Z,23.78
2016-09-11T02:43:55.353Z,23.79
2016-09-11T02:44:55.332Z,23.74
2016-09-11T02:45:55.323Z,23.82
2016-09-11T02:46:54.990Z,23.79
2016-09-11T02:47:55.288Z,23.82
2016-09-11T02:48:55.276Z,23.75
2016-09-11T02:49:55.279Z,23.74
2016-09-11T02:50:54.922Z,23.78
2016-09-11T02:51:55.219Z,23.75
2016-09-11T02:52:54.877Z,23.77
2016-09-11T02:53:55.194Z,23.82
2016-09-11T02:54:54.864Z,23.79
2016-09-11T02:55:55.194Z,23.75
2016-09-11T02:56:55.133Z,23.79
2016-09-11T02:57:55.109Z,23.77
2016-09-11T02:58:54.782Z,23.79
2016-09-11T02:59:55.079Z,23.62
2016-09-11T03:00:55.375Z,23.5
2016-09-11T03:01:54.728Z,23.35
2016-09-11T03:02:55.048Z,23.31
2016-09-11T03:03:55.019Z,23.14
2016-09-11T03:04:55.000Z,23.14
2016-09-11T03:05:54.655Z,23.14
2016-09-11T03:06:55.012Z,23.16
2016-09-11T03:07:54.622Z,23.06
2016-09-11T03:08:54.609Z,23.06
2016-09-11T03:09:54.901Z,23.09
2016-09-11T03:10:55.197Z,23.07
2016-09-11T03:11:54.560Z,23.11
2016-09-11T03:12:54.861Z,23.07
2016-09-11T03:13:54.846Z,23.11
2016-09-11T03:14:54.504Z,23.04
2016-09-11T03:15:54.548Z,22.99
2016-09-11T03:16:55.110Z,23.03
2016-09-11T03:17:54.448Z,23.01
2016-09-11T03:18:54.434Z,22.97
2016-09-11T03:19:54.421Z,23.03
2016-09-11T03:20:54.403Z,23.07
2016-09-11T03:21:54.393Z,23.01
2016-09-11T03:22:54.705Z,23.03
2016-09-11T03:23:54.354Z,23.01
2016-09-11T03:24:54.666Z,23.06
2016-09-11T03:25:54.649Z,23.14
2016-09-11T03:26:54.695Z,23.11
2016-09-11T03:27:54.611Z,22.99
2016-09-11T03:28:54.283Z,22.99
2016-09-11T03:29:54.270Z,22.99
2016-09-11T03:30:54.579Z,23.01
2016-09-11T03:31:54.552Z,22.99
2016-09-11T03:32:54.873Z,23.01
2016-09-11T03:33:54.517Z,22.94
2016-09-11T03:34:54.538Z,23
2016-09-11T03:35:54.165Z,22.99
2016-09-11T03:36:54.827Z,22.99
2016-09-11T03:37:54.486Z,23.03
2016-09-11T03:38:54.435Z,23
2016-09-11T03:39:54.792Z,22.97
2016-09-11T03:40:54.400Z,22.94
2016-09-11T03:41:54.397Z,22.97
2016-09-11T03:42:54.052Z,22.99
2016-09-11T03:43:54.097Z,23.01
2016-09-11T03:44:54.337Z,23
2016-09-11T03:45:54.009Z,22.91
2016-09-11T03:46:54.320Z,22.93
2016-09-11T03:47:54.287Z,22.93
2016-09-11T03:48:54.271Z,22.99
2016-09-11T03:49:53.940Z,23.04
2016-09-11T03:50:54.246Z,22.86
2016-09-11T03:51:53.942Z,22.93
2016-09-11T03:52:53.903Z,22.86
2016-09-11T03:53:53.924Z,22.99
2016-09-11T03:54:54.529Z,22.94
2016-09-11T03:55:54.178Z,22.84
2016-09-11T03:56:54.163Z,22.84
2016-09-11T03:57:54.531Z,22.88
2016-09-11T03:58:54.113Z,22.91
2016-09-11T03:59:54.121Z,22.91
2016-09-11T04:00:53.820Z,22.93
2016-09-11T04:01:54.384Z,22.84
2016-09-11T04:02:54.090Z,22.89
2016-09-11T04:03:53.759Z,22.86
2016-09-11T04:04:53.714Z,22.86
2016-09-11T04:05:53.696Z,22.85
2016-09-11T04:06:53.683Z,22.85
2016-09-11T04:07:53.989Z,22.84
2016-09-11T04:08:53.966Z,22.84
2016-09-11T04:09:53.652Z,22.84
2016-09-11T04:10:53.617Z,22.81
2016-09-11T04:11:53.613Z,22.88
2016-09-11T04:12:53.592Z,22.84
2016-09-11T04:13:53.589Z,22.89
2016-09-11T04:14:53.881Z,22.82
2016-09-11T04:15:53.862Z,22.78
2016-09-11T04:16:53.554Z,22.78
2016-09-11T04:17:54.155Z,22.72
2016-09-11T04:18:53.505Z,22.69
2016-09-11T04:19:53.482Z,22.74
2016-09-11T04:20:53.466Z,22.66
2016-09-11T04:21:53.766Z,22.7
2016-09-11T04:22:53.776Z,22.74
2016-09-11T04:23:53.427Z,22.66
2016-09-11T04:24:56.845Z,22.76
2016-09-11T04:25:54.071Z,22.67
2016-09-11T04:26:53.695Z,22.69
2016-09-11T04:27:53.980Z,22.64
2016-09-11T04:28:53.964Z,22.67
2016-09-11T04:29:53.949Z,22.64
2016-09-11T04:30:53.617Z,22.67
2016-09-11T04:31:53.921Z,22.66
2016-09-11T04:32:53.589Z,22.66
2016-09-11T04:33:53.886Z,22.74
2016-09-11T04:34:53.873Z,22.66
2016-09-11T04:35:53.860Z,22.69
2016-09-11T04:36:53.846Z,22.69
2016-09-11T04:37:53.827Z,22.67
2016-09-11T04:38:53.813Z,22.7
2016-09-11T04:39:53.794Z,22.69
2016-09-11T04:40:53.785Z,22.64
2016-09-11T04:41:53.765Z,22.61
2016-09-11T04:42:53.755Z,22.59
2016-09-11T04:43:53.734Z,22.61
2016-09-11T04:44:53.843Z,22.59
2016-09-11T04:45:53.695Z,22.63
2016-09-11T04:46:53.371Z,22.63
2016-09-11T04:47:53.669Z,22.64
2016-09-11T04:48:53.659Z,22.56
2016-09-11T04:49:53.642Z,22.63
2016-09-11T04:50:53.629Z,22.56
2016-09-11T04:51:53.620Z,22.66
2016-09-11T04:52:53.599Z,22.63
2016-09-11T04:53:53.582Z,22.69
2016-09-11T04:54:53.565Z,22.66
2016-09-11T04:55:53.243Z,22.64
2016-09-11T04:56:53.218Z,22.64
2016-09-11T04:57:53.520Z,22.63
2016-09-11T04:58:53.502Z,22.69
2016-09-11T04:59:53.489Z,22.61
2016-09-11T05:00:53.160Z,22.61
2016-09-11T05:01:53.460Z,22.69
2016-09-11T05:02:53.125Z,22.67
2016-09-11T05:03:53.435Z,22.69
2016-09-11T05:04:53.418Z,22.7
2016-09-11T05:05:53.083Z,22.64
2016-09-11T05:06:53.380Z,22.66
2016-09-11T05:07:53.365Z,22.69
2016-09-11T05:08:53.345Z,22.64
2016-09-11T05:09:53.020Z,22.63
2016-09-11T05:10:53.323Z,22.69
2016-09-11T05:11:53.308Z,22.7
2016-09-11T05:12:53.282Z,22.61
2016-09-11T05:13:53.283Z,22.64
2016-09-11T05:14:53.258Z,22.61
2016-09-11T05:15:53.248Z,22.67
2016-09-11T05:16:52.911Z,22.59
2016-09-11T05:17:53.221Z,22.59
2016-09-11T05:18:53.216Z,22.57
2016-09-11T05:19:53.177Z,22.57
2016-09-11T05:20:53.163Z,22.59
2016-09-11T05:21:53.223Z,22.59
2016-09-11T05:22:53.140Z,22.57
2016-09-11T05:23:53.123Z,22.61
2016-09-11T05:24:53.105Z,22.57
2016-09-11T05:25:53.087Z,22.59
2016-09-11T05:26:53.073Z,22.57
2016-09-11T05:27:53.069Z,22.6
2016-09-11T05:28:53.041Z,22.56
2016-09-11T05:29:52.716Z,22.51
2016-09-11T05:30:52.701Z,22.56
2016-09-11T05:31:52.999Z,22.49
2016-09-11T05:32:52.990Z,22.48
2016-09-11T05:33:52.977Z,22.57
2016-09-11T05:34:52.952Z,22.45
2016-09-11T05:35:52.947Z,22.57
2016-09-11T05:36:52.942Z,22.45
2016-09-11T05:37:52.586Z,22.54
2016-09-11T05:38:52.896Z,22.51
2016-09-11T05:39:52.882Z,22.45
2016-09-11T05:40:52.870Z,22.51
2016-09-11T05:41:52.527Z,22.46
2016-09-11T05:42:52.830Z,22.48
2016-09-11T05:43:52.815Z,22.49
2016-09-11T05:44:52.801Z,22.45
2016-09-11T05:45:52.792Z,22.45
2016-09-11T05:46:52.444Z,22.54
2016-09-11T05:47:52.752Z,22.52
2016-09-11T05:48:52.737Z,22.41
2016-09-11T05:49:52.721Z,22.45
2016-09-11T05:50:52.706Z,22.46
2016-09-11T05:51:52.689Z,22.56
2016-09-11T05:52:52.673Z,22.52
2016-09-11T05:53:52.661Z,22.59
2016-09-11T05:54:52.649Z,22.59
2016-09-11T05:55:52.636Z,22.48
2016-09-11T05:56:52.619Z,22.54
2016-09-11T05:57:52.603Z,22.6
2016-09-11T05:58:52.581Z,22.63
2016-09-11T05:59:52.575Z,22.64
2016-09-11T06:00:52.560Z,22.67
2016-09-11T06:01:52.539Z,22.61
2016-09-11T06:02:52.520Z,22.6
2016-09-11T06:03:52.511Z,22.61
2016-09-11T06:04:52.485Z,22.63
2016-09-11T06:05:52.472Z,22.57
2016-09-11T06:06:52.143Z,22.56
2016-09-11T06:07:52.455Z,22.57
2016-09-11T06:08:52.431Z,22.52
2016-09-11T06:09:52.415Z,22.46
2016-09-11T06:10:52.396Z,22.45
2016-09-11T06:11:51.762Z,22.56
2016-09-11T06:12:51.748Z,22.49
2016-09-11T06:13:51.723Z,22.6
2016-09-11T06:14:52.025Z,22.57
2016-09-11T06:15:51.700Z,22.64
2016-09-11T06:16:52.328Z,22.64
2016-09-11T06:17:52.306Z,22.6
2016-09-11T06:18:52.349Z,22.61
2016-09-11T06:19:51.948Z,22.6
2016-09-11T06:20:51.633Z,22.64
2016-09-11T06:21:52.239Z,22.61
2016-09-11T06:22:51.921Z,22.61
2016-09-11T06:23:51.879Z,22.61
2016-09-11T06:24:51.567Z,22.57
2016-09-11T06:25:51.557Z,22.6
2016-09-11T06:26:51.576Z,22.59
2016-09-11T06:27:52.270Z,22.6
2016-09-11T06:28:52.119Z,22.54
2016-09-11T06:29:52.145Z,22.63
2016-09-11T06:30:51.465Z,22.6
2016-09-11T06:31:51.782Z,22.6
2016-09-11T06:32:51.756Z,22.59
2016-09-11T06:33:52.054Z,22.52
2016-09-11T06:34:52.069Z,22.54
2016-09-11T06:35:51.392Z,22.6
2016-09-11T06:36:51.728Z,22.57
2016-09-11T06:37:51.677Z,22.61
2016-09-11T06:38:51.651Z,22.59
2016-09-11T06:39:51.331Z,22.69
2016-09-11T06:40:51.648Z,22.69
2016-09-11T06:41:51.296Z,22.6
2016-09-11T06:42:51.288Z,22.64
2016-09-11T06:43:51.270Z,22.6
2016-09-11T06:44:51.302Z,22.61
2016-09-11T06:45:51.552Z,22.59
2016-09-11T06:46:51.283Z,22.56
2016-09-11T06:47:51.549Z,22.57
2016-09-11T06:48:51.822Z,22.61
2016-09-11T06:49:51.181Z,22.6
2016-09-11T06:50:51.154Z,22.61
2016-09-11T06:51:51.137Z,22.66
2016-09-11T06:52:51.127Z,22.63
2016-09-11T06:53:51.127Z,22.59
2016-09-11T06:54:51.094Z,22.57
2016-09-11T06:55:51.427Z,22.59
2016-09-11T06:56:51.395Z,22.61
2016-09-11T06:57:51.055Z,22.6
2016-09-11T06:58:51.054Z,22.56
2016-09-11T06:59:51.356Z,22.48
2016-09-11T07:00:51.340Z,22.51
2016-09-11T07:01:51.307Z,22.57
2016-09-11T07:02:51.332Z,22.61
2016-09-11T07:03:51.466Z,22.57
2016-09-11T07:04:51.015Z,22.57
2016-09-11T07:05:51.562Z,22.67
2016-09-11T07:06:51.276Z,22.69
2016-09-11T07:07:51.244Z,22.69
2016-09-11T07:08:51.194Z,22.69
2016-09-11T07:09:50.902Z,22.69
2016-09-11T07:10:50.922Z,22.72
2016-09-11T07:11:51.166Z,22.7
2016-09-11T07:12:50.905Z,22.74
2016-09-11T07:13:51.149Z,22.74
2016-09-11T07:14:50.794Z,22.66
2016-09-11T07:15:50.810Z,22.7
2016-09-11T07:16:51.411Z,22.67
2016-09-11T07:17:51.062Z,22.69
2016-09-11T07:18:51.056Z,22.72
2016-09-11T07:19:51.042Z,22.67
2016-09-11T07:20:51.063Z,22.69
2016-09-11T07:21:50.682Z,22.76
2016-09-11T07:22:50.986Z,22.79
2016-09-11T07:23:50.655Z,22.85
2016-09-11T07:24:50.649Z,22.84
2016-09-11T07:25:50.939Z,22.79
2016-09-11T07:26:50.609Z,22.78
2016-09-11T07:27:50.914Z,22.76
2016-09-11T07:28:51.242Z,22.72
2016-09-11T07:29:50.562Z,22.81
2016-09-11T07:30:50.543Z,22.74
2016-09-11T07:31:50.555Z,22.75
2016-09-11T07:32:50.522Z,22.74
2016-09-11T07:33:50.528Z,22.76
2016-09-11T07:34:51.126Z,22.76
2016-09-11T07:35:51.119Z,22.75
2016-09-11T07:36:50.477Z,22.79
2016-09-11T07:37:51.079Z,22.74
2016-09-11T07:38:50.443Z,22.78
2016-09-11T07:39:50.759Z,22.78
2016-09-11T07:40:51.106Z,22.85
2016-09-11T07:41:50.707Z,22.79
2016-09-11T07:42:50.402Z,22.82
2016-09-11T07:43:50.705Z,22.85
2016-09-11T07:44:50.647Z,22.84
2016-09-11T07:45:50.951Z,22.86
2016-09-11T07:46:50.327Z,22.86
2016-09-11T07:47:50.361Z,22.86
2016-09-11T07:48:50.286Z,22.84
2016-09-11T07:49:50.562Z,22.84
2016-09-11T07:50:50.562Z,22.89
2016-09-11T07:51:50.536Z,22.88
2016-09-11T07:52:50.201Z,22.91
2016-09-11T07:53:50.325Z,22.84
2016-09-11T07:54:50.816Z,22.82
2016-09-11T07:55:50.179Z,22.89
2016-09-11T07:56:50.184Z,22.88
2016-09-11T07:57:50.142Z,22.84
2016-09-11T07:58:50.816Z,22.81
2016-09-11T07:59:50.103Z,22.84
2016-09-11T08:00:50.080Z,22.82
2016-09-11T08:01:50.712Z,22.84
2016-09-11T08:02:50.376Z,22.85
2016-09-11T08:03:50.817Z,22.81
2016-09-11T08:04:50.057Z,22.82
2016-09-11T08:05:50.328Z,22.82
2016-09-11T08:06:50.374Z,22.82
2016-09-11T08:07:50.020Z,22.81
2016-09-11T08:08:50.582Z,22.85
2016-09-11T08:09:49.950Z,22.85
2016-09-11T08:10:50.777Z,22.85
2016-09-11T08:11:50.233Z,22.84
2016-09-11T08:12:49.941Z,22.85
2016-09-11T08:13:49.883Z,22.84
2016-09-11T08:14:49.989Z,22.84
2016-09-11T08:15:50.193Z,22.86
2016-09-11T08:16:49.847Z,22.88
2016-09-11T08:17:50.189Z,22.85
2016-09-11T08:18:50.182Z,22.89
2016-09-11T08:19:50.104Z,22.82
2016-09-11T08:20:50.099Z,22.99
2016-09-11T08:21:50.079Z,22.99
2016-09-11T08:22:50.063Z,22.99
2016-09-11T08:23:50.041Z,22.96
2016-09-11T08:24:50.255Z,23.01
2016-09-11T08:25:50.002Z,22.91
2016-09-11T08:26:49.680Z,22.99
2016-09-11T08:27:50.015Z,23.04
2016-09-11T08:28:49.963Z,23
2016-09-11T08:29:50.258Z,22.99
2016-09-11T08:30:49.925Z,22.99
2016-09-11T08:31:49.606Z,23
2016-09-11T08:32:49.596Z,23.01
2016-09-11T08:33:49.921Z,23.03
2016-09-11T08:34:49.883Z,22.99
2016-09-11T08:35:49.547Z,23
2016-09-11T08:36:49.547Z,23.04
2016-09-11T08:37:49.512Z,23.03
2016-09-11T08:38:49.823Z,23.04
2016-09-11T08:39:49.817Z,23.01
2016-09-11T08:40:49.812Z,22.99
2016-09-11T08:41:49.535Z,23.11
2016-09-11T08:42:49.438Z,23.03
2016-09-11T08:43:49.574Z,23.01
2016-09-11T08:44:49.421Z,23.04
2016-09-11T08:45:49.407Z,23.03
2016-09-11T08:46:49.391Z,23.06
2016-09-11T08:47:49.678Z,23.01
2016-09-11T08:48:49.681Z,23.06
2016-09-11T08:49:49.678Z,23.07
2016-09-11T08:50:49.632Z,23.01
2016-09-11T08:51:49.633Z,23
2016-09-11T08:52:49.456Z,23.12
2016-09-11T08:53:49.587Z,23.06
2016-09-11T08:54:49.252Z,23.03
2016-09-11T08:55:49.562Z,23.09
2016-09-11T08:56:49.314Z,23.07
2016-09-11T08:57:49.211Z,22.96
2016-09-11T08:58:49.513Z,23.07
2016-09-11T08:59:49.234Z,23.09
2016-09-11T09:00:49.185Z,23.06
2016-09-11T09:01:49.140Z,23.04
2016-09-11T09:02:49.186Z,23.12
2016-09-11T09:03:49.265Z,23.14
2016-09-11T09:04:49.110Z,23.12
2016-09-11T09:05:49.105Z,23.15
2016-09-11T09:06:49.385Z,23.12
2016-09-11T09:07:49.400Z,23.07
2016-09-11T09:08:49.035Z,23
2016-09-11T09:09:49.023Z,23.11
2016-09-11T09:10:49.000Z,23.06
2016-09-11T09:11:49.314Z,22.99
2016-09-11T09:12:49.302Z,23
2016-09-11T09:13:48.964Z,23
2016-09-11T09:14:49.271Z,23.11
2016-09-11T09:15:48.945Z,23.15
2016-09-11T09:16:49.329Z,23.15
2016-09-11T09:17:49.012Z,23.06
2016-09-11T09:18:51.967Z,23.09
2016-09-11T09:19:48.893Z,22.99
2016-09-11T09:20:49.174Z,23.16
2016-09-11T09:21:49.464Z,23.01
2016-09-11T09:22:48.838Z,23.07
2016-09-11T09:23:48.801Z,23.16
2016-09-11T09:24:48.791Z,23.11
2016-09-11T09:25:48.787Z,23.12
2016-09-11T09:26:49.081Z,23.06
2016-09-11T09:27:49.064Z,23.09
2016-09-11T09:28:48.742Z,23.06
2016-09-11T09:29:48.723Z,23.06
2016-09-11T09:30:48.727Z,23.04
2016-09-11T09:31:48.709Z,23.18
2016-09-11T09:32:48.989Z,23.06
2016-09-11T09:33:49.070Z,23.09
2016-09-11T09:34:48.660Z,23.14
2016-09-11T09:35:48.629Z,23.12
2016-09-11T09:36:48.918Z,23.18
2016-09-11T09:37:48.943Z,23.01
2016-09-11T09:38:49.224Z,23.12
2016-09-11T09:39:48.891Z,23.07
2016-09-11T09:40:48.865Z,23.04
2016-09-11T09:41:48.614Z,23.14
2016-09-11T09:42:48.842Z,23.09
2016-09-11T09:43:48.883Z,23.07
2016-09-11T09:44:48.500Z,23.11
2016-09-11T09:45:48.474Z,23.11
2016-09-11T09:46:48.453Z,23.12
2016-09-11T09:47:48.441Z,23.18
2016-09-11T09:48:48.849Z,23.07
2016-09-11T09:49:48.411Z,23.18
2016-09-11T09:50:48.390Z,23.07
2016-09-11T09:51:48.693Z,23.18
2016-09-11T09:52:48.687Z,23.15
2016-09-11T09:53:48.658Z,23.18
2016-09-11T09:54:48.981Z,23.07
2016-09-11T09:55:48.645Z,23.09
2016-09-11T09:56:48.631Z,23.03
2016-09-11T09:57:48.607Z,23.15
2016-09-11T09:58:48.277Z,23.18
2016-09-11T09:59:48.579Z,23.21
2016-09-11T10:00:48.242Z,23.16
2016-09-11T10:01:48.239Z,23.16
2016-09-11T10:02:48.559Z,23.19
2016-09-11T10:03:48.213Z,23.21
2016-09-11T10:04:48.496Z,23.19
2016-09-11T10:05:48.791Z,23.25
2016-09-11T10:06:48.467Z,23.15
2016-09-11T10:07:48.458Z,23.22
2016-09-11T10:08:48.458Z,23.23
2016-09-11T10:09:48.470Z,23.22
2016-09-11T10:10:48.400Z,23.26
2016-09-11T10:11:48.417Z,23.23
2016-09-11T10:12:48.374Z,23.21
2016-09-11T10:13:49.107Z,23.22
2016-09-11T10:14:48.338Z,23.25
2016-09-11T10:15:48.054Z,23.22
2016-09-11T10:16:48.326Z,23.25
2016-09-11T10:17:48.294Z,23.35
2016-09-11T10:18:48.327Z,23.21
2016-09-11T10:19:47.976Z,23.26
2016-09-11T10:20:47.973Z,23.29
2016-09-11T10:21:48.233Z,23.34
2016-09-11T10:22:47.922Z,23.23
2016-09-11T10:23:48.206Z,23.35
2016-09-11T10:24:48.257Z,23.32
2016-09-11T10:25:47.866Z,23.29
2016-09-11T10:26:47.849Z,23.23
2016-09-11T10:27:48.263Z,23.26
2016-09-11T10:28:48.539Z,23.35
2016-09-11T10:29:47.810Z,23.31
2016-09-11T10:30:48.107Z,23.35
2016-09-11T10:31:48.420Z,23.18
2016-09-11T10:32:47.755Z,23.38
2016-09-11T10:33:48.399Z,23.23
2016-09-11T10:34:48.031Z,23.26
2016-09-11T10:35:48.030Z,23.29
2016-09-11T10:36:47.865Z,23.35
2016-09-11T10:37:47.692Z,23.31
2016-09-11T10:38:47.970Z,23.39
2016-09-11T10:39:47.659Z,23.42
2016-09-11T10:40:48.003Z,23.37
2016-09-11T10:41:48.278Z,23.38
2016-09-11T10:42:47.612Z,23.5
2016-09-11T10:43:47.923Z,23.5
2016-09-11T10:44:47.569Z,23.39
2016-09-11T10:45:47.889Z,23.42
2016-09-11T10:46:47.548Z,23.42
2016-09-11T10:47:48.174Z,23.44
2016-09-11T10:48:47.535Z,23.45
2016-09-11T10:49:47.830Z,23.41
2016-09-11T10:50:47.945Z,23.42
2016-09-11T10:51:47.492Z,23.49
2016-09-11T10:52:47.810Z,23.53
2016-09-11T10:53:47.437Z,23.47
2016-09-11T10:54:47.981Z,23.49
2016-09-11T10:55:47.720Z,23.47
2016-09-11T10:56:47.723Z,23.45
2016-09-11T10:57:47.685Z,23.49
2016-09-11T10:58:47.735Z,23.42
2016-09-11T10:59:47.345Z,23.44
2016-09-11T11:00:47.968Z,23.49
2016-09-11T11:01:47.330Z,23.5
2016-09-11T11:02:47.635Z,23.39
2016-09-11T11:03:47.691Z,23.44
2016-09-11T11:04:47.593Z,23.49
2016-09-11T11:05:47.562Z,23.44
2016-09-11T11:06:47.263Z,23.44
2016-09-11T11:07:47.555Z,23.47
2016-09-11T11:08:47.209Z,23.41
2016-09-11T11:09:47.849Z,23.53
2016-09-11T11:10:47.225Z,23.54
2016-09-11T11:11:47.171Z,23.6
2016-09-11T11:12:47.469Z,23.62
2016-09-11T11:13:47.136Z,23.6
2016-09-11T11:14:47.762Z,23.6
2016-09-11T11:15:47.754Z,23.53
2016-09-11T11:16:47.410Z,23.57
2016-09-11T11:17:47.105Z,23.6
2016-09-11T11:18:47.056Z,23.52
2016-09-11T11:19:47.369Z,23.56
2016-09-11T11:20:47.363Z,23.57
2016-09-11T11:21:47.007Z,23.56
2016-09-11T11:22:46.995Z,23.5
2016-09-11T11:23:46.976Z,23.5
2016-09-11T11:24:47.285Z,23.6
2016-09-11T11:25:47.286Z,23.54
2016-09-11T11:26:47.282Z,23.56
2016-09-11T11:27:47.244Z,23.56
2016-09-11T11:28:47.239Z,23.56
2016-09-11T11:29:46.909Z,23.57
2016-09-11T11:30:47.193Z,23.56
2016-09-11T11:31:47.505Z,23.57
2016-09-11T11:32:46.855Z,23.59
2016-09-11T11:33:46.853Z,23.57
2016-09-11T11:34:47.134Z,23.52
2016-09-11T11:35:47.130Z,23.57
2016-09-11T11:36:47.117Z,23.57
2016-09-11T11:37:47.080Z,23.62
2016-09-11T11:38:47.234Z,23.56
2016-09-11T11:39:46.763Z,23.62
2016-09-11T11:40:46.735Z,23.63
2016-09-11T11:41:46.718Z,23.56
2016-09-11T11:42:46.702Z,23.53
2016-09-11T11:43:46.679Z,23.6
2016-09-11T11:44:47.292Z,23.57
2016-09-11T11:45:47.277Z,23.62
2016-09-11T11:46:46.967Z,23.57
2016-09-11T11:47:46.626Z,23.54
2016-09-11T11:49:19.423Z,23.56
2016-09-11T11:49:46.614Z,23.59
2016-09-11T11:50:46.908Z,23.54
2016-09-11T11:51:46.883Z,23.59
2016-09-11T11:52:46.558Z,23.59
2016-09-11T11:53:46.846Z,23.57
2016-09-11T11:54:46.532Z,23.56
2016-09-11T11:55:46.854Z,23.59
2016-09-11T11:56:46.812Z,23.54
2016-09-11T11:57:46.479Z,23.62
2016-09-11T11:58:46.764Z,23.53
2016-09-11T11:59:46.447Z,23.56
2016-09-11T12:00:46.745Z,23.64
2016-09-11T12:01:46.730Z,23.63
2016-09-11T12:02:46.710Z,23.59
2016-09-11T12:03:46.397Z,23.69
2016-09-11T12:04:46.676Z,23.6
2016-09-11T12:05:46.369Z,23.71
2016-09-11T12:06:46.339Z,23.75
2016-09-11T12:07:46.326Z,23.78
2016-09-11T12:08:46.321Z,23.72
2016-09-11T12:09:46.619Z,23.78
2016-09-11T12:10:46.636Z,23.81
2016-09-11T12:11:46.263Z,23.78
2016-09-11T12:12:46.573Z,23.86
2016-09-11T12:13:46.606Z,23.82
2016-09-11T12:14:46.534Z,23.87
2016-09-11T12:15:46.852Z,23.87
2016-09-11T12:16:46.835Z,23.92
2016-09-11T12:17:46.175Z,23.96
2016-09-11T12:18:46.462Z,23.94
2016-09-11T12:19:46.153Z,23.89
2016-09-11T12:20:46.474Z,23.84
2016-09-11T12:21:46.102Z,23.93
2016-09-11T12:22:46.735Z,23.9
2016-09-11T12:23:46.100Z,23.92
2016-09-11T12:24:46.071Z,23.92
2016-09-11T12:25:46.161Z,23.92
2016-09-11T12:26:46.663Z,23.84
2016-09-11T12:27:46.330Z,23.82
2016-09-11T12:28:46.013Z,23.89
2016-09-11T12:29:46.018Z,23.86
2016-09-11T12:30:46.282Z,23.87
2016-09-11T12:31:46.648Z,23.87
2016-09-11T12:32:45.935Z,23.92
2016-09-11T12:33:46.268Z,23.87
2016-09-11T12:34:46.586Z,23.89
2016-09-11T12:35:45.914Z,23.9
2016-09-11T12:36:46.215Z,23.89
2016-09-11T12:37:45.883Z,23.97
2016-09-11T12:38:45.859Z,23.96
2016-09-11T12:39:45.849Z,23.92
2016-09-11T12:40:45.852Z,23.94
2016-09-11T12:41:46.147Z,23.87
2016-09-11T12:42:46.126Z,23.94
2016-09-11T12:43:45.779Z,23.92
2016-09-11T12:44:46.108Z,23.94
2016-09-11T12:45:46.083Z,23.9
2016-09-11T12:46:45.757Z,23.93
2016-09-11T12:47:46.042Z,23.9
2016-09-11T12:48:46.477Z,24.02
2016-09-11T12:49:46.007Z,23.97
2016-09-11T12:50:45.988Z,23.99
2016-09-11T12:51:45.993Z,24.02
2016-09-11T12:52:46.284Z,24.05
2016-09-11T12:53:45.649Z,24.02
2016-09-11T12:54:46.006Z,24.04
2016-09-11T12:55:45.615Z,24.05